Goldens Bridge, NY (10526)

3:13 AM EDT on September 01, 2016 (GMT -0400)
KNYGOLDE2 | | Change Station

Elev 226 ft 41.30 °N, 73.67 °W | Updated 469 days ago

Thunderstorm
Thunderstorm
69 °F
Feels Like 69 °F
N
2
Wind Variable Wind from WNW
Gusts mph

Today
High -- | Low -- °F
--% Chance of Precip.
Yesterday
High -- | Low -- °F
Precip. -- in
Pressure 29.86 in
Visibility 8.0 miles
Clouds Few 4300 ft
Scattered Clouds 6000 ft
Mostly Cloudy 11000 ft
Dew Point 67 °F
Humidity 95%
Rainfall in
Snow Depth Not available.
6:21 AM 7:26 PM
Waning Crescent, 0% visible
SPECI KDXR 010710Z AUTO 00000KT 8SM FEW043 SCT060 BKN110 21/20 A2986 RMK AO2 T02060200
Pressure 29.86 in
Visibility 8.0 miles
Clouds Few 4300 ft
Scattered Clouds 6000 ft
Mostly Cloudy 11000 ft
Dew Point 67 °F
Humidity 95%
Rainfall in
Snow Depth Not available.
6:21 AM 7:26 PM
Waning Crescent, 0% visible
SPECI KDXR 010710Z AUTO 00000KT 8SM FEW043 SCT060 BKN110 21/20 A2986 RMK AO2 T02060200

10-Day Weather Forecast

Almanac

Astronomy

Sep. 01, 2016 Rise Set
Actual Time
Civil Twilight
Nautical Twilight
Astronomical Twilight
Moon
Length of Visible Light
Length of Day
Tomorrow will be .
, % of the Moon is Illuminated

Today's Extremes

State Highs State Lows

Community

WunderPhotos

Upload Photos

1,936,314 photos uploaded!

WunderBlog® & News

Nearby

Air Quality

  Air Quality AQ Index Pollutant
Not available.

Snow Depth

Station Depth Elevation

Earthquake Activity

City Distance Mag. Time & Date
Minimum magnitude displayed is 2.5.

Coastal Water Temperatures

Place Temperature

Stations

Nearby Weather Stations

Station Location Temp. Windchill Dew Point Humidity Wind Precip. Elev Updated Type
                   

Watches & Warnings

There are currently no watches in effect.